Pensacola, FL

1:47 AM CDT on August 24, 2017 (GMT -0500)
Pensacola Regional | | Change Station

Elev 118 ft 30.47 °N, 87.19 °W | Updated 54 minutes ago

Scattered Clouds
Scattered Clouds
77 °F
Feels Like 77 °F
N
0
Wind Variable Wind from North

Today
High -- | Low -- °F
--% Chance of Precip.
Yesterday
High -- | Low -- °F
Precip. -- in
Pressure 29.91 in
Visibility 10.0 miles
Clouds Scattered Clouds 6000 ft
Dew Point 72 °F
Humidity 84%
Rainfall 0.00 in
Snow Depth Not available.
6:20 AM 7:20 PM
Waxing Crescent, 8% visible
METAR KPNS 240553Z AUTO 00000KT 10SM SCT060 25/22 A2990 RMK AO2 SLP126 T02500222 10278 20250 403500250 50001
Pressure 29.91 in
Visibility 10.0 miles
Clouds Scattered Clouds 6000 ft
Dew Point 72 °F
Humidity 84%
Rainfall 0.00 in
Snow Depth Not available.
6:20 AM 7:20 PM
Waxing Crescent, 8% visible
METAR KPNS 240553Z AUTO 00000KT 10SM SCT060 25/22 A2990 RMK AO2 SLP126 T02500222 10278 20250 403500250 50001

Get Severe Weather Alerts

Thanks for signing up!

Be on the lookout for a verification email in your inbox.

You'll start receiving the daily forecast at 6 AM.

×

10-Day Weather Forecast

Almanac

Astronomy

Aug. 24, 2017 Rise Set
Actual Time
Civil Twilight
Nautical Twilight
Astronomical Twilight
Moon
Length of Visible Light
Length of Day
Tomorrow will be .
, % of the Moon is Illuminated

Today's Extremes

State Highs State Lows

Community

WunderPhotos

Category 6

Welcome to Category 6. This is the collective home for Weather Underground's featured writeups by Dr. Jeff Masters (right), Bob Henson (left), Chris Burt, and other regular contributors.

Nearby

Air Quality

  Air Quality AQ Index Pollutant
Not available.

Snow Depth

Station Depth Elevation

Earthquake Activity

City Distance Mag. Time & Date
Minimum magnitude displayed is 2.5.

Coastal Water Temperatures

Place Temperature

Stations

Nearby Weather Stations

Station Location Temp. Windchill Dew Point Humidity Wind Precip. Elev Updated Type
                   

Watches & Warnings

There are currently no watches in effect.